Strona główna
METAR-TAF:

METAR-TAF

Lotnisko :

Montichiari

Brescia, Włochy

Szerokość geograficzna: 45-24-02N, Długość geograficzna: 010-18-59E, wysokość: 104 m

Aktualna obserwacja pogody

Raport powstał 31 minut temu, godzina 18:50 UTC
Wiatr 5 kt od północny wschód
Temperatura 25°C
Wilgotność 50%
Ciśnienie 1012 hPa
Widzialność 10 km lub więcej
Brak chmur poniżej 1500 m i brak chmur cumulonimbus

METAR: LIPO 181850Z 04005KT CAVOK 25/14 Q1012

czas: 21:21 (19:21 UTC)

Prognoza

Raport powstał 2 godziny i 21 minut temu, godzina 17:00 UTC
Prognoza ważna od 18 godzina 18 UTC do 19 godzina 18 UTC
Wiatr 5 kt z kierunków zmiennych
Widzialność 10 km lub więcej
Brak chmur poniżej 1500 m i brak chmur cumulonimbus

TAF: LIPO 181700Z 1818/1918 VRB05KT CAVOK

Obserwacja i prognoza pogody dla ponad 4000 lotnisk (raport METAR i TAF).

Dostępne stacje oznaczono żółtymi i czerwonymi punktami na mapie.

Najedź kursorem aby zobaczyć nazwę stacji.

Kliknij aby zobaczyć obserwacje i prognozy pogody.

Aby zmienić mapę: kliknij na zielony przycisk z czarnym krzyżykiem, aby powiększyć; na zielony przycisk z myślnikiem, aby pomniejszyć; na zielone strzałki, aby przejść do map sąsiednich.


METAR-TAF: